createdAt,value
2018-03-15T00:01:27.000Z,28.1
2018-03-15T00:03:27.000Z,28
2018-03-15T00:04:27.000Z,28
2018-03-15T00:05:27.000Z,28
2018-03-15T00:07:27.000Z,28
2018-03-15T00:08:27.000Z,28
2018-03-15T00:10:27.000Z,28
2018-03-15T00:11:27.000Z,28
2018-03-15T00:13:27.000Z,28
2018-03-15T00:15:27.000Z,28
2018-03-15T00:16:27.000Z,28
2018-03-15T00:18:27.000Z,28.1
2018-03-15T00:20:27.000Z,28
2018-03-15T00:22:27.000Z,28
2018-03-15T00:23:27.000Z,27.9
2018-03-15T00:24:27.000Z,28
2018-03-15T00:26:27.000Z,28
2018-03-15T00:28:27.000Z,28
2018-03-15T00:30:27.000Z,27.9
2018-03-15T00:32:27.000Z,27.8
2018-03-15T00:34:27.000Z,27.8
2018-03-15T00:35:27.000Z,27.8
2018-03-15T00:37:27.000Z,27.9
2018-03-15T00:38:27.000Z,27.9
2018-03-15T00:39:27.000Z,27.9
2018-03-15T00:40:27.000Z,28
2018-03-15T00:41:27.000Z,28
2018-03-15T00:43:27.000Z,28.1
2018-03-15T00:44:27.000Z,28.1
2018-03-15T00:45:27.000Z,28.1
2018-03-15T00:46:27.000Z,28.1
2018-03-15T00:48:27.000Z,28.1
2018-03-15T00:49:27.000Z,28.1
2018-03-15T00:50:27.000Z,28.1
2018-03-15T00:52:27.000Z,28.1
2018-03-15T00:53:27.000Z,28.1
2018-03-15T00:55:26.000Z,28.1
2018-03-15T00:56:26.000Z,28.1
2018-03-15T00:57:26.000Z,28.1
2018-03-15T00:59:26.000Z,28.1
2018-03-15T01:01:26.000Z,28
2018-03-15T01:03:26.000Z,27.9
2018-03-15T01:05:26.000Z,27.9
2018-03-15T01:07:26.000Z,27.9
2018-03-15T01:09:26.000Z,27.8
2018-03-15T01:10:26.000Z,27.8
2018-03-15T01:11:26.000Z,27.8
2018-03-15T01:13:26.000Z,27.9
2018-03-15T01:14:26.000Z,27.9
2018-03-15T01:15:26.000Z,27.9
2018-03-15T01:17:26.000Z,27.9
2018-03-15T01:19:26.000Z,27.8
2018-03-15T01:21:26.000Z,27.8
2018-03-15T01:23:26.000Z,27.8
2018-03-15T01:25:26.000Z,27.7
2018-03-15T01:26:26.000Z,27.8
2018-03-15T01:27:26.000Z,27.8
2018-03-15T01:28:26.000Z,27.8
2018-03-15T01:29:26.000Z,27.9
2018-03-15T01:31:26.000Z,27.9
2018-03-15T01:32:26.000Z,27.9
2018-03-15T01:34:26.000Z,27.9
2018-03-15T01:36:26.000Z,27.9
2018-03-15T01:38:26.000Z,27.8
2018-03-15T01:39:26.000Z,27.8
2018-03-15T01:41:26.000Z,27.8
2018-03-15T01:42:26.000Z,27.8
2018-03-15T01:43:26.000Z,27.9
2018-03-15T01:44:26.000Z,27.9
2018-03-15T01:46:26.000Z,28
2018-03-15T01:48:26.000Z,28
2018-03-15T01:49:26.000Z,27.9
2018-03-15T01:51:26.000Z,27.9
2018-03-15T01:53:26.000Z,27.9
2018-03-15T01:54:26.000Z,27.8
2018-03-15T01:56:26.000Z,27.7
2018-03-15T01:57:26.000Z,27.7
2018-03-15T01:59:26.000Z,27.7
2018-03-15T02:01:26.000Z,27.7
2018-03-15T02:02:26.000Z,27.7
2018-03-15T02:04:26.000Z,27.7
2018-03-15T02:06:26.000Z,27.7
2018-03-15T02:08:26.000Z,27.6
2018-03-15T02:09:26.000Z,27.6
2018-03-15T02:10:26.000Z,27.7
2018-03-15T02:11:26.000Z,27.7
2018-03-15T02:13:26.000Z,27.7
2018-03-15T02:14:26.000Z,27.7
2018-03-15T02:16:26.000Z,27.7
2018-03-15T02:18:26.000Z,27.7
2018-03-15T02:19:26.000Z,27.8
2018-03-15T02:21:26.000Z,27.7
2018-03-15T02:22:26.000Z,27.7
2018-03-15T02:24:26.000Z,27.7
2018-03-15T02:25:26.000Z,27.7
2018-03-15T02:27:26.000Z,27.7
2018-03-15T02:28:26.000Z,27.7
2018-03-15T02:29:26.000Z,27.8
2018-03-15T02:31:26.000Z,27.8
2018-03-15T02:32:26.000Z,27.9
2018-03-15T02:34:26.000Z,27.9
2018-03-15T02:36:26.000Z,27.9
2018-03-15T02:38:26.000Z,27.8
2018-03-15T02:40:26.000Z,27.7
2018-03-15T02:42:26.000Z,27.6
2018-03-15T02:43:26.000Z,27.6
2018-03-15T02:45:26.000Z,27.6
2018-03-15T02:47:26.000Z,27.5
2018-03-15T02:49:26.000Z,27.5
2018-03-15T02:51:26.000Z,27.5
2018-03-15T02:53:26.000Z,27.5
2018-03-15T02:54:26.000Z,27.6
2018-03-15T02:56:26.000Z,27.6
2018-03-15T02:57:26.000Z,27.6
2018-03-15T02:58:26.000Z,27.7
2018-03-15T02:59:26.000Z,27.7
2018-03-15T03:00:26.000Z,27.8
2018-03-15T03:02:11.000Z,27.8
2018-03-15T03:03:26.000Z,27.8
2018-03-15T03:05:26.000Z,27.8
2018-03-15T03:06:26.000Z,27.8
2018-03-15T03:07:26.000Z,27.8
2018-03-15T03:09:26.000Z,27.8
2018-03-15T03:11:26.000Z,27.8
2018-03-15T03:13:26.000Z,27.7
2018-03-15T03:14:26.000Z,27.7
2018-03-15T03:16:11.000Z,27.7
2018-03-15T03:17:26.000Z,27.7
2018-03-15T03:19:26.000Z,27.7
2018-03-15T03:20:26.000Z,27.7
2018-03-15T03:22:26.000Z,27.7
2018-03-15T03:23:26.000Z,27.7
2018-03-15T03:25:26.000Z,27.8
2018-03-15T03:26:26.000Z,27.8
2018-03-15T03:27:26.000Z,27.8
2018-03-15T03:28:26.000Z,27.8
2018-03-15T03:29:26.000Z,27.8
2018-03-15T03:30:26.000Z,27.9
2018-03-15T03:32:26.000Z,27.9
2018-03-15T03:33:26.000Z,27.9
2018-03-15T03:34:26.000Z,27.8
2018-03-15T03:35:26.000Z,27.9
2018-03-15T03:37:26.000Z,27.9
2018-03-15T03:38:26.000Z,27.9
2018-03-15T03:39:26.000Z,27.9
2018-03-15T03:41:11.000Z,27.9
2018-03-15T03:42:26.000Z,27.9
2018-03-15T03:43:26.000Z,27.8
2018-03-15T03:45:26.000Z,27.8
2018-03-15T03:46:26.000Z,27.8
2018-03-15T03:48:26.000Z,27.8
2018-03-15T03:50:26.000Z,27.7
2018-03-15T03:51:26.000Z,27.7
2018-03-15T03:53:26.000Z,27.7
2018-03-15T03:55:26.000Z,27.6
2018-03-15T03:57:26.000Z,27.6
2018-03-15T03:59:26.000Z,27.6
2018-03-15T04:00:26.000Z,27.6
2018-03-15T04:01:26.000Z,27.6
2018-03-15T04:03:11.000Z,27.6
2018-03-15T04:04:26.000Z,27.6
2018-03-15T04:06:26.000Z,27.6
2018-03-15T04:08:26.000Z,27.6
2018-03-15T04:09:26.000Z,27.6
2018-03-15T04:11:26.000Z,27.5
2018-03-15T04:13:11.000Z,27.5
2018-03-15T04:14:26.000Z,27.5
2018-03-15T04:15:26.000Z,27.5
2018-03-15T04:17:26.000Z,27.5
2018-03-15T04:19:26.000Z,27.5
2018-03-15T04:21:26.000Z,27.5
2018-03-15T04:22:26.000Z,27.4
2018-03-15T04:23:26.000Z,27.5
2018-03-15T04:25:26.000Z,27.5
2018-03-15T04:27:26.000Z,27.5
2018-03-15T04:28:26.000Z,27.5
2018-03-15T04:29:26.000Z,27.5
2018-03-15T04:30:26.000Z,27.6
2018-03-15T04:31:26.000Z,27.6
2018-03-15T04:33:26.000Z,27.6
2018-03-15T04:34:26.000Z,27.6
2018-03-15T04:36:26.000Z,27.6
2018-03-15T04:37:26.000Z,27.6
2018-03-15T04:38:26.000Z,27.7
2018-03-15T04:39:26.000Z,27.7
2018-03-15T04:40:26.000Z,27.8
2018-03-15T04:42:26.000Z,27.9
2018-03-15T04:43:26.000Z,27.9
2018-03-15T04:45:11.000Z,27.8
2018-03-15T04:46:26.000Z,27.8
2018-03-15T04:47:26.000Z,27.8
2018-03-15T04:48:26.000Z,27.8
2018-03-15T04:50:27.000Z,27.8
2018-03-15T04:52:11.000Z,27.8
2018-03-15T04:53:26.000Z,27.7
2018-03-15T04:54:26.000Z,27.7
2018-03-15T04:56:26.000Z,27.7
2018-03-15T04:57:26.000Z,27.7
2018-03-15T04:58:26.000Z,27.7
2018-03-15T05:00:26.000Z,27.7
2018-03-15T05:01:26.000Z,27.7
2018-03-15T05:02:26.000Z,27.7
2018-03-15T05:03:26.000Z,27.7
2018-03-15T05:04:26.000Z,27.7
2018-03-15T05:06:26.000Z,27.7
2018-03-15T05:08:26.000Z,27.7
2018-03-15T05:10:26.000Z,27.6
2018-03-15T05:12:26.000Z,27.6
2018-03-15T05:14:26.000Z,27.5
2018-03-15T05:15:26.000Z,27.5
2018-03-15T05:16:26.000Z,27.5
2018-03-15T05:17:26.000Z,27.5
2018-03-15T05:18:26.000Z,27.6
2018-03-15T05:20:26.000Z,27.6
2018-03-15T05:22:26.000Z,27.5
2018-03-15T05:23:26.000Z,27.5
2018-03-15T05:24:26.000Z,27.5
2018-03-15T05:25:26.000Z,27.6
2018-03-15T05:27:11.000Z,27.6
2018-03-15T05:28:26.000Z,27.6
2018-03-15T05:29:26.000Z,27.6
2018-03-15T05:30:26.000Z,27.6
2018-03-15T05:31:26.000Z,27.7
2018-03-15T05:32:26.000Z,27.7
2018-03-15T05:34:11.000Z,27.7
2018-03-15T05:35:26.000Z,27.6
2018-03-15T05:36:26.000Z,27.6
2018-03-15T05:38:26.000Z,27.5
2018-03-15T05:39:26.000Z,27.5
2018-03-15T05:41:26.000Z,27.5
2018-03-15T05:42:26.000Z,27.5
2018-03-15T05:43:26.000Z,27.5
2018-03-15T05:45:26.000Z,27.5
2018-03-15T05:46:26.000Z,27.5
2018-03-15T05:48:26.000Z,27.6
2018-03-15T05:50:26.000Z,27.5
2018-03-15T05:52:26.000Z,27.5
2018-03-15T05:53:26.000Z,27.5
2018-03-15T05:54:26.000Z,27.5
2018-03-15T05:55:26.000Z,27.6
2018-03-15T05:57:26.000Z,27.7
2018-03-15T05:59:26.000Z,27.7
2018-03-15T06:01:26.000Z,27.7
2018-03-15T06:02:26.000Z,27.7
2018-03-15T06:04:11.000Z,27.8
2018-03-15T06:05:26.000Z,27.7
2018-03-15T06:07:26.000Z,27.8
2018-03-15T06:09:26.000Z,27.8
2018-03-15T06:10:26.000Z,27.8
2018-03-15T06:12:26.000Z,27.9
2018-03-15T06:13:26.000Z,27.9
2018-03-15T06:15:26.000Z,27.9
2018-03-15T06:17:26.000Z,27.9
2018-03-15T06:19:26.000Z,27.9
2018-03-15T06:20:26.000Z,27.9
2018-03-15T06:21:26.000Z,28
2018-03-15T06:23:26.000Z,28
2018-03-15T06:24:26.000Z,28.1
2018-03-15T06:25:26.000Z,28.2
2018-03-15T06:26:26.000Z,28.2
2018-03-15T06:28:26.000Z,28.2
2018-03-15T06:30:26.000Z,28.2
2018-03-15T06:32:26.000Z,28.2
2018-03-15T06:34:26.000Z,28.1
2018-03-15T06:35:26.000Z,28.2
2018-03-15T06:37:26.000Z,28.3
2018-03-15T06:39:26.000Z,28.5
2018-03-15T06:41:26.000Z,28.5
2018-03-15T06:43:26.000Z,28.6
2018-03-15T06:44:26.000Z,28.6
2018-03-15T06:46:26.000Z,28.8
2018-03-15T06:47:26.000Z,28.8
2018-03-15T06:48:26.000Z,28.9
2018-03-15T06:50:26.000Z,29
2018-03-15T06:52:26.000Z,29
2018-03-15T06:54:26.000Z,29
2018-03-15T06:56:26.000Z,29
2018-03-15T06:57:26.000Z,29
2018-03-15T06:58:26.000Z,29
2018-03-15T07:00:11.000Z,29.1
2018-03-15T07:01:26.000Z,29.1
2018-03-15T07:02:26.000Z,29.1
2018-03-15T07:04:26.000Z,29.2
2018-03-15T07:05:26.000Z,29.2
2018-03-15T07:07:26.000Z,29.3
2018-03-15T07:08:26.000Z,29.3
2018-03-15T07:10:26.000Z,29.4
2018-03-15T07:12:26.000Z,29.5
2018-03-15T07:14:26.000Z,29.5
2018-03-15T07:16:26.000Z,29.5
2018-03-15T07:17:26.000Z,29.5
2018-03-15T07:19:26.000Z,29.6
2018-03-15T07:21:26.000Z,29.7
2018-03-15T07:22:26.000Z,29.7
2018-03-15T07:24:26.000Z,29.9
2018-03-15T07:26:26.000Z,29.9
2018-03-15T07:27:26.000Z,30
2018-03-15T07:29:26.000Z,30.1
2018-03-15T07:31:26.000Z,30.1
2018-03-15T07:35:27.000Z,29.8
2018-03-15T07:37:13.000Z,29.8
2018-03-15T07:38:13.000Z,29.8
2018-03-15T07:39:13.000Z,29.9
2018-03-15T07:41:13.000Z,30
2018-03-15T07:43:13.000Z,29.4
2018-03-15T07:44:13.000Z,29.1
2018-03-15T07:46:13.000Z,28.7
2018-03-15T07:48:13.000Z,28.4
2018-03-15T07:50:13.000Z,28
2018-03-15T07:52:13.000Z,27.8
2018-03-15T07:54:13.000Z,27.5
2018-03-15T07:55:13.000Z,27.5
2018-03-15T07:57:13.000Z,27.5
2018-03-15T07:58:13.000Z,27.5
2018-03-15T08:00:13.000Z,27.6
2018-03-15T08:02:13.000Z,27.7
2018-03-15T08:03:13.000Z,27.6
2018-03-15T08:04:57.000Z,27.6
2018-03-15T08:06:13.000Z,27.6
2018-03-15T08:08:13.000Z,27.4
2018-03-15T08:09:13.000Z,27.3
2018-03-15T08:10:13.000Z,27.3
2018-03-15T08:11:13.000Z,27.3
2018-03-15T08:12:13.000Z,27.2
2018-03-15T08:14:13.000Z,27.1
2018-03-15T08:16:13.000Z,26.7
2018-03-15T08:17:13.000Z,26.5
2018-03-15T08:19:12.000Z,26.1
2018-03-15T08:21:12.000Z,26
2018-03-15T08:23:12.000Z,26.3
2018-03-15T08:24:12.000Z,26.5
2018-03-15T08:26:12.000Z,27
2018-03-15T08:28:12.000Z,27.4
2018-03-15T08:29:12.000Z,27.5
2018-03-15T08:31:12.000Z,27.9
2018-03-15T08:33:12.000Z,28.3
2018-03-15T08:35:12.000Z,28.5
2018-03-15T08:36:12.000Z,28.6
2018-03-15T08:37:12.000Z,28.8
2018-03-15T08:39:12.000Z,29
2018-03-15T08:41:12.000Z,29.1
2018-03-15T08:43:12.000Z,29.1
2018-03-15T08:45:12.000Z,29.2
2018-03-15T08:47:12.000Z,29.2
2018-03-15T08:48:12.000Z,29.2
2018-03-15T08:50:12.000Z,29.3
2018-03-15T08:51:12.000Z,29.3
2018-03-15T08:53:12.000Z,29.4
2018-03-15T08:54:12.000Z,29.4
2018-03-15T08:56:12.000Z,29.4
2018-03-15T08:58:12.000Z,29.3
2018-03-15T08:59:12.000Z,29.3
2018-03-15T09:01:12.000Z,29.3
2018-03-15T09:02:12.000Z,29.4
2018-03-15T09:04:12.000Z,29.4
2018-03-15T09:06:12.000Z,29.4
2018-03-15T09:07:12.000Z,29.4
2018-03-15T09:08:12.000Z,29.5
2018-03-15T09:10:12.000Z,29.6
2018-03-15T09:11:12.000Z,29.5
2018-03-15T09:13:12.000Z,29.3
2018-03-15T09:15:12.000Z,28.8
2018-03-15T09:16:57.000Z,28.3
2018-03-15T09:18:12.000Z,28
2018-03-15T09:19:12.000Z,27.7
2018-03-15T09:20:12.000Z,27.6
2018-03-15T09:22:12.000Z,27.3
2018-03-15T09:23:12.000Z,27.2
2018-03-15T09:25:12.000Z,27
2018-03-15T09:27:12.000Z,26.8
2018-03-15T09:28:12.000Z,26.7
2018-03-15T09:29:57.000Z,26.7
2018-03-15T09:31:12.000Z,26.6
2018-03-15T09:33:12.000Z,26.5
2018-03-15T09:35:12.000Z,26.5
2018-03-15T09:37:12.000Z,26.5
2018-03-15T09:38:12.000Z,26.5
2018-03-15T09:40:12.000Z,26.5
2018-03-15T09:42:12.000Z,26.2
2018-03-15T09:43:12.000Z,26.1
2018-03-15T09:45:12.000Z,26
2018-03-15T09:47:12.000Z,25.8
2018-03-15T09:48:12.000Z,25.8
2018-03-15T09:49:12.000Z,25.8
2018-03-15T09:50:12.000Z,25.8
2018-03-15T09:51:12.000Z,25.9
2018-03-15T09:52:12.000Z,26
2018-03-15T09:54:12.000Z,26.1
2018-03-15T09:56:12.000Z,26
2018-03-15T09:57:12.000Z,26
2018-03-15T09:58:12.000Z,25.9
2018-03-15T10:00:12.000Z,25.9
2018-03-15T10:02:12.000Z,25.9
2018-03-15T10:03:12.000Z,25.9
2018-03-15T10:05:12.000Z,26
2018-03-15T10:06:12.000Z,26.1
2018-03-15T10:07:12.000Z,26.2
2018-03-15T10:08:13.000Z,26.2
2018-03-15T10:09:57.000Z,26.2
2018-03-15T10:11:12.000Z,26.1
2018-03-15T10:12:12.000Z,26.1
2018-03-15T10:14:12.000Z,26.1
2018-03-15T10:15:12.000Z,26.1
2018-03-15T10:16:12.000Z,26.1
2018-03-15T10:18:12.000Z,26.1
2018-03-15T10:19:12.000Z,26.1
2018-03-15T10:20:12.000Z,26.1
2018-03-15T10:21:57.000Z,26.1
2018-03-15T10:23:12.000Z,26
2018-03-15T10:24:12.000Z,26.1
2018-03-15T10:25:12.000Z,26.1
2018-03-15T10:26:12.000Z,26.1
2018-03-15T10:27:12.000Z,26.2
2018-03-15T10:28:12.000Z,26.2
2018-03-15T10:30:12.000Z,26.3
2018-03-15T10:31:12.000Z,26.2
2018-03-15T10:33:12.000Z,26.2
2018-03-15T10:34:12.000Z,26.2
2018-03-15T10:36:12.000Z,26.4
2018-03-15T10:37:12.000Z,26.5
2018-03-15T10:39:12.000Z,26.9
2018-03-15T10:41:12.000Z,27.4
2018-03-15T10:42:12.000Z,27.6
2018-03-15T10:44:12.000Z,28
2018-03-15T10:45:12.000Z,28.3
2018-03-15T10:46:12.000Z,28.6
2018-03-15T10:48:12.000Z,29
2018-03-15T10:49:12.000Z,29.1
2018-03-15T10:50:12.000Z,29.3
2018-03-15T10:52:12.000Z,29.5
2018-03-15T10:53:12.000Z,29.7
2018-03-15T10:55:12.000Z,29.9
2018-03-15T10:57:12.000Z,29.8
2018-03-15T10:59:12.000Z,29.5
2018-03-15T11:01:12.000Z,29.5
2018-03-15T11:03:12.000Z,29.4
2018-03-15T11:05:12.000Z,29.4
2018-03-15T11:06:12.000Z,29.4
2018-03-15T11:08:12.000Z,29.3
2018-03-15T11:09:12.000Z,29.3
2018-03-15T11:10:57.000Z,29.2
2018-03-15T11:12:12.000Z,29.1
2018-03-15T11:14:12.000Z,28.8
2018-03-15T11:15:12.000Z,28.7
2018-03-15T11:16:12.000Z,28.7
2018-03-15T11:17:12.000Z,28.7
2018-03-15T11:18:12.000Z,28.6
2018-03-15T11:20:12.000Z,28.5
2018-03-15T11:22:12.000Z,28.3
2018-03-15T11:23:12.000Z,28.3
2018-03-15T11:25:12.000Z,28.2
2018-03-15T11:26:12.000Z,28.2
2018-03-15T11:28:12.000Z,28.1
2018-03-15T11:29:12.000Z,28.1
2018-03-15T11:31:12.000Z,28.2
2018-03-15T11:33:12.000Z,28.3
2018-03-15T11:34:57.000Z,28.3
2018-03-15T11:36:12.000Z,28.3
2018-03-15T11:37:12.000Z,28.3
2018-03-15T11:38:57.000Z,28.4
2018-03-15T11:40:12.000Z,28.4
2018-03-15T11:42:12.000Z,28.5
2018-03-15T11:44:12.000Z,28.5
2018-03-15T11:46:12.000Z,28.5
2018-03-15T11:47:12.000Z,28.5
2018-03-15T11:49:12.000Z,28.5
2018-03-15T11:50:12.000Z,28.6
2018-03-15T11:52:12.000Z,28.5
2018-03-15T11:53:57.000Z,28.4
2018-03-15T11:55:12.000Z,28.3
2018-03-15T11:56:12.000Z,28.4
2018-03-15T11:57:57.000Z,28.6
2018-03-15T11:59:12.000Z,28.6
2018-03-15T12:01:12.000Z,28.7
2018-03-15T12:03:12.000Z,28.7
2018-03-15T12:05:12.000Z,28.6
2018-03-15T12:06:12.000Z,28.6
2018-03-15T12:07:12.000Z,28.7
2018-03-15T12:09:12.000Z,28.8
2018-03-15T12:11:12.000Z,28.7
2018-03-15T12:13:12.000Z,28.6
2018-03-15T12:15:12.000Z,28.5
2018-03-15T12:16:57.000Z,28.3
2018-03-15T12:18:12.000Z,28.3
2018-03-15T12:19:12.000Z,28.3
2018-03-15T12:20:12.000Z,28.3
2018-03-15T12:22:12.000Z,28.4
2018-03-15T12:23:12.000Z,28.3
2018-03-15T12:24:12.000Z,28.3
2018-03-15T12:25:12.000Z,28.3
2018-03-15T12:27:12.000Z,28.3
2018-03-15T12:29:12.000Z,28.2
2018-03-15T12:31:12.000Z,27.9
2018-03-15T12:32:12.000Z,27.9
2018-03-15T12:34:13.000Z,27.8
2018-03-15T12:35:58.000Z,27.7
2018-03-15T12:37:13.000Z,27.7
2018-03-15T12:38:13.000Z,27.7
2018-03-15T12:40:13.000Z,27.7
2018-03-15T12:42:13.000Z,27.6
2018-03-15T12:43:13.000Z,27.7
2018-03-15T12:45:13.000Z,27.6
2018-03-15T12:46:13.000Z,27.6
2018-03-15T12:48:13.000Z,27.6
2018-03-15T12:50:13.000Z,27.6
2018-03-15T12:52:13.000Z,27.4
2018-03-15T12:53:13.000Z,27.3
2018-03-15T12:55:13.000Z,27.3
2018-03-15T12:57:13.000Z,27.2
2018-03-15T12:58:13.000Z,27.2
2018-03-15T12:59:13.000Z,27.2
2018-03-15T13:00:13.000Z,27.3
2018-03-15T13:01:13.000Z,27.3
2018-03-15T13:02:13.000Z,27.3
2018-03-15T13:04:13.000Z,27.2
2018-03-15T13:06:13.000Z,27
2018-03-15T13:07:13.000Z,27
2018-03-15T13:09:13.000Z,27
2018-03-15T13:10:13.000Z,27
2018-03-15T13:12:13.000Z,26.9
2018-03-15T13:14:13.000Z,26.8
2018-03-15T13:16:13.000Z,26.8
2018-03-15T13:18:13.000Z,26.7
2018-03-15T13:19:13.000Z,26.7
2018-03-15T13:20:13.000Z,26.7
2018-03-15T13:22:13.000Z,26.8
2018-03-15T13:23:13.000Z,26.8
2018-03-15T13:25:13.000Z,26.7
2018-03-15T13:26:13.000Z,26.7
2018-03-15T13:28:13.000Z,26.7
2018-03-15T13:29:13.000Z,26.7
2018-03-15T13:31:13.000Z,26.7
2018-03-15T13:32:13.000Z,26.6
2018-03-15T13:34:13.000Z,26.5
2018-03-15T13:36:13.000Z,26.4
2018-03-15T13:37:12.000Z,26.4
2018-03-15T13:39:12.000Z,26.3
2018-03-15T13:41:12.000Z,26.1
2018-03-15T13:42:12.000Z,26.1
2018-03-15T13:44:12.000Z,26
2018-03-15T13:46:12.000Z,26
2018-03-15T13:47:12.000Z,25.9
2018-03-15T13:48:57.000Z,25.9
2018-03-15T13:50:12.000Z,25.8
2018-03-15T13:51:12.000Z,25.8
2018-03-15T13:53:12.000Z,25.8
2018-03-15T13:54:12.000Z,25.7
2018-03-15T13:55:57.000Z,25.8
2018-03-15T13:57:12.000Z,25.7
2018-03-15T13:58:12.000Z,25.7
2018-03-15T14:00:12.000Z,25.6
2018-03-15T14:01:12.000Z,25.6
2018-03-15T14:02:12.000Z,25.7
2018-03-15T14:04:12.000Z,26.1
2018-03-15T14:05:12.000Z,26.3
2018-03-15T14:06:12.000Z,26.5
2018-03-15T14:08:12.000Z,27
2018-03-15T14:10:12.000Z,27.3
2018-03-15T14:11:12.000Z,27.4
2018-03-15T14:13:12.000Z,27.7
2018-03-15T14:14:12.000Z,27.7
2018-03-15T14:16:12.000Z,27.9
2018-03-15T14:18:12.000Z,28
2018-03-15T14:19:12.000Z,28
2018-03-15T14:21:12.000Z,28.1
2018-03-15T14:22:12.000Z,28.1
2018-03-15T14:23:57.000Z,28.2
2018-03-15T14:25:12.000Z,28.2
2018-03-15T14:27:12.000Z,28.3
2018-03-15T14:28:12.000Z,28.3
2018-03-15T14:29:57.000Z,28.4
2018-03-15T14:31:12.000Z,28.3
2018-03-15T14:33:12.000Z,28.4
2018-03-15T14:34:12.000Z,28.4
2018-03-15T14:36:12.000Z,28.5
2018-03-15T14:37:12.000Z,28.5
2018-03-15T14:38:12.000Z,28.5
2018-03-15T14:39:12.000Z,28.6
2018-03-15T14:40:12.000Z,28.7
2018-03-15T14:42:12.000Z,28.8
2018-03-15T14:43:12.000Z,28.8
2018-03-15T14:44:12.000Z,28.8
2018-03-15T14:46:12.000Z,28.9
2018-03-15T14:47:12.000Z,28.9
2018-03-15T14:49:12.000Z,28.9
2018-03-15T14:50:12.000Z,28.9
2018-03-15T14:51:12.000Z,28.9
2018-03-15T14:53:12.000Z,28.9
2018-03-15T14:55:12.000Z,28.8
2018-03-15T14:57:12.000Z,28.7
2018-03-15T14:58:12.000Z,28.6
2018-03-15T14:59:12.000Z,28.7
2018-03-15T15:00:12.000Z,28.7
2018-03-15T15:02:12.000Z,28.7
2018-03-15T15:03:57.000Z,28.7
2018-03-15T15:05:12.000Z,28.7
2018-03-15T15:06:12.000Z,28.7
2018-03-15T15:07:12.000Z,28.8
2018-03-15T15:08:12.000Z,28.8
2018-03-15T15:09:12.000Z,28.8
2018-03-15T15:11:12.000Z,28.9
2018-03-15T15:12:12.000Z,28.9
2018-03-15T15:13:12.000Z,28.9
2018-03-15T15:14:12.000Z,28.9
2018-03-15T15:15:12.000Z,29
2018-03-15T15:16:12.000Z,29
2018-03-15T15:18:12.000Z,29
2018-03-15T15:19:12.000Z,29
2018-03-15T15:21:12.000Z,28.9
2018-03-15T15:22:12.000Z,28.9
2018-03-15T15:23:12.000Z,28.9
2018-03-15T15:25:12.000Z,28.9
2018-03-15T15:26:12.000Z,28.9
2018-03-15T15:27:12.000Z,29
2018-03-15T15:29:12.000Z,29
2018-03-15T15:31:12.000Z,28.9
2018-03-15T15:32:12.000Z,28.8
2018-03-15T15:34:12.000Z,28.7
2018-03-15T15:35:12.000Z,28.7
2018-03-15T15:37:12.000Z,28.7
2018-03-15T15:39:12.000Z,28.6
2018-03-15T15:41:12.000Z,28.5
2018-03-15T15:43:12.000Z,28.5
2018-03-15T15:45:13.000Z,28.4
2018-03-15T15:46:13.000Z,28.5
2018-03-15T15:47:13.000Z,28.5
2018-03-15T15:49:13.000Z,28.6
2018-03-15T15:50:13.000Z,28.6
2018-03-15T15:51:13.000Z,28.7
2018-03-15T15:52:13.000Z,28.7
2018-03-15T15:53:13.000Z,28.8
2018-03-15T15:55:13.000Z,28.9
2018-03-15T15:57:13.000Z,28.8
2018-03-15T15:58:13.000Z,28.8
2018-03-15T16:00:13.000Z,28.8
2018-03-15T16:02:13.000Z,28.7
2018-03-15T16:03:13.000Z,28.7
2018-03-15T16:04:13.000Z,28.7
2018-03-15T16:06:13.000Z,28.7
2018-03-15T16:07:13.000Z,28.7
2018-03-15T16:09:13.000Z,28.7
2018-03-15T16:11:13.000Z,28.6
2018-03-15T16:13:13.000Z,28.5
2018-03-15T16:15:13.000Z,28.5
2018-03-15T16:16:13.000Z,28.5
2018-03-15T16:18:13.000Z,28.6
2018-03-15T16:20:13.000Z,28.7
2018-03-15T16:22:13.000Z,28.6
2018-03-15T16:23:13.000Z,28.6
2018-03-15T16:24:13.000Z,28.7
2018-03-15T16:26:13.000Z,28.8
2018-03-15T16:27:13.000Z,28.8
2018-03-15T16:29:13.000Z,28.8
2018-03-15T16:31:13.000Z,28.8
2018-03-15T16:33:13.000Z,28.8
2018-03-15T16:34:13.000Z,28.8
2018-03-15T16:36:13.000Z,28.8
2018-03-15T16:37:13.000Z,28.7
2018-03-15T16:38:13.000Z,28.8
2018-03-15T16:39:13.000Z,28.8
2018-03-15T16:41:13.000Z,28.8
2018-03-15T16:43:13.000Z,28.7
2018-03-15T16:45:13.000Z,28.7
2018-03-15T16:46:13.000Z,28.7
2018-03-15T16:48:12.000Z,28.7
2018-03-15T16:50:12.000Z,28.7
2018-03-15T16:51:12.000Z,28.7
2018-03-15T16:53:12.000Z,28.7
2018-03-15T16:55:12.000Z,28.7
2018-03-15T16:56:12.000Z,28.7
2018-03-15T16:58:12.000Z,28.7
2018-03-15T16:59:12.000Z,28.7
2018-03-15T17:01:12.000Z,28.7
2018-03-15T17:02:12.000Z,28.7
2018-03-15T17:03:12.000Z,28.7
2018-03-15T17:04:12.000Z,28.8
2018-03-15T17:05:12.000Z,28.9
2018-03-15T17:07:12.000Z,28.8
2018-03-15T17:08:12.000Z,28.8
2018-03-15T17:10:12.000Z,28.7
2018-03-15T17:12:12.000Z,28.6
2018-03-15T17:13:12.000Z,28.6
2018-03-15T17:15:12.000Z,28.6
2018-03-15T17:17:12.000Z,28.6
2018-03-15T17:18:12.000Z,28.6
2018-03-15T17:20:12.000Z,28.6
2018-03-15T17:21:12.000Z,28.6
2018-03-15T17:23:12.000Z,28.5
2018-03-15T17:25:12.000Z,28.5
2018-03-15T17:26:12.000Z,28.5
2018-03-15T17:28:12.000Z,28.5
2018-03-15T17:30:12.000Z,28.5
2018-03-15T17:31:12.000Z,28.4
2018-03-15T17:33:12.000Z,28.4
2018-03-15T17:34:12.000Z,28.4
2018-03-15T17:36:12.000Z,28.4
2018-03-15T17:38:12.000Z,28.3
2018-03-15T17:39:12.000Z,28.3
2018-03-15T17:41:12.000Z,28.3
2018-03-15T17:43:12.000Z,28.3
2018-03-15T17:44:12.000Z,28.3
2018-03-15T17:45:12.000Z,28.4
2018-03-15T17:46:57.000Z,28.4
2018-03-15T17:48:12.000Z,28.4
2018-03-15T17:49:12.000Z,28.5
2018-03-15T17:51:12.000Z,28.5
2018-03-15T17:52:12.000Z,28.5
2018-03-15T17:54:12.000Z,28.5
2018-03-15T17:56:12.000Z,28.5
2018-03-15T17:57:12.000Z,28.5
2018-03-15T17:58:12.000Z,28.5
2018-03-15T17:59:12.000Z,28.5
2018-03-15T18:00:12.000Z,28.6
2018-03-15T18:02:12.000Z,28.6
2018-03-15T18:03:12.000Z,28.6
2018-03-15T18:05:12.000Z,28.5
2018-03-15T18:06:12.000Z,28.5
2018-03-15T18:07:57.000Z,28.5
2018-03-15T18:09:12.000Z,28.5
2018-03-15T18:11:12.000Z,28.4
2018-03-15T18:13:12.000Z,28.3
2018-03-15T18:14:12.000Z,28.3
2018-03-15T18:16:12.000Z,28.3
2018-03-15T18:18:12.000Z,28.2
2018-03-15T18:20:12.000Z,28.2
2018-03-15T18:21:12.000Z,28.2
2018-03-15T18:23:12.000Z,28.3
2018-03-15T18:24:12.000Z,28.3
2018-03-15T18:26:12.000Z,28.3
2018-03-15T18:28:12.000Z,28.3
2018-03-15T18:29:12.000Z,28.3
2018-03-15T18:31:12.000Z,28.3
2018-03-15T18:33:12.000Z,28.3
2018-03-15T18:34:12.000Z,28.3
2018-03-15T18:36:12.000Z,28.3
2018-03-15T18:38:12.000Z,28.3
2018-03-15T18:39:12.000Z,28.2
2018-03-15T18:41:12.000Z,28.3
2018-03-15T18:43:12.000Z,28.3
2018-03-15T18:45:12.000Z,28.3
2018-03-15T18:47:12.000Z,28.2
2018-03-15T18:49:12.000Z,28.1
2018-03-15T18:51:12.000Z,28.1
2018-03-15T18:53:12.000Z,28.1
2018-03-15T18:55:12.000Z,28.1
2018-03-15T18:57:12.000Z,28.1
2018-03-15T18:58:12.000Z,28.1
2018-03-15T18:59:12.000Z,28.1
2018-03-15T19:01:12.000Z,28.2
2018-03-15T19:03:12.000Z,28.2
2018-03-15T19:04:12.000Z,28.2
2018-03-15T19:05:12.000Z,28.2
2018-03-15T19:07:12.000Z,28.2
2018-03-15T19:08:12.000Z,28.3
2018-03-15T19:10:12.000Z,28.3
2018-03-15T19:12:12.000Z,28.3
2018-03-15T19:13:57.000Z,28.3
2018-03-15T19:15:12.000Z,28.2
2018-03-15T19:16:12.000Z,28.3
2018-03-15T19:17:12.000Z,28.3
2018-03-15T19:19:12.000Z,28.4
2018-03-15T19:20:12.000Z,28.4
2018-03-15T19:22:12.000Z,28.4
2018-03-15T19:24:12.000Z,28.4
2018-03-15T19:26:12.000Z,28.3
2018-03-15T19:27:12.000Z,28.3
2018-03-15T19:29:12.000Z,28.3
2018-03-15T19:30:12.000Z,28.3
2018-03-15T19:32:12.000Z,28.3
2018-03-15T19:34:12.000Z,28.2
2018-03-15T19:35:12.000Z,28.2
2018-03-15T19:37:12.000Z,28.3
2018-03-15T19:39:12.000Z,28.3
2018-03-15T19:40:57.000Z,28.3
2018-03-15T19:41:57.000Z,27.6
2018-03-15T19:43:12.000Z,28.2
2018-03-15T19:44:12.000Z,28.2
2018-03-15T19:46:12.000Z,28.3
2018-03-15T19:48:12.000Z,28.2
2018-03-15T19:49:12.000Z,28.2
2018-03-15T19:51:12.000Z,28.2
2018-03-15T19:53:12.000Z,28.2
2018-03-15T19:54:12.000Z,28.1
2018-03-15T19:55:12.000Z,28.1
2018-03-15T19:57:12.000Z,28.1
2018-03-15T19:59:13.000Z,28
2018-03-15T20:00:13.000Z,28
2018-03-15T20:01:13.000Z,28
2018-03-15T20:02:13.000Z,28.1
2018-03-15T20:03:13.000Z,28.1
2018-03-15T20:05:13.000Z,28.2
2018-03-15T20:06:13.000Z,28.2
2018-03-15T20:08:13.000Z,28.2
2018-03-15T20:09:13.000Z,28.2
2018-03-15T20:11:13.000Z,28.2
2018-03-15T20:13:13.000Z,28.1
2018-03-15T20:15:13.000Z,28
2018-03-15T20:17:13.000Z,28
2018-03-15T20:18:13.000Z,28
2018-03-15T20:19:13.000Z,28
2018-03-15T20:21:13.000Z,28
2018-03-15T20:23:13.000Z,28
2018-03-15T20:24:58.000Z,28
2018-03-15T20:26:13.000Z,27.9